Historyczne dane pomiarowe

Dodano dane terminowe – wersja testowa.

Dane z okresu 1951-2019

Wersja bazy: 1.34 [2019-03-16, lista zmian], aktualizacja planowana na 2019-04-15

Dane meteo z obszaru Polski uzyskane na podstawie danych udostępnionych przez Instytut Meteorologii i Gospodarki Wodnej – Państwowy Instytut Badawczy.

 

Wybierz Datę:    

       

TemperaturaWilgotnośćWiatrCiśnienieOpadyŚniegCzas trwania zjawisk
 Stacja t tx tn tng RH VA  wxwx mslp ppp RRR   cm mm wxwxwxwxwxwxwx
1999-08-14 6.0 10.9 2.6--- 5.3 2.3---- 0.0------------
1999-08-13 5.5 6.6 4.5--- 8.0 1.0---- 0.0------------
1999-08-12 7.8 11.4 6.0--- 8.0 0.0---- 1.0------------
1999-08-11 12.4 16.3 9.6--- 4.0 0.0---- 3.1------------
1999-08-10 16.5 20.5 13.4--- 6.3 4.0---- 26.4------------
1999-08-09 17.2 23.5 11.9--- 4.3 5.3---- 0.7------------
1999-08-08 14.7 18.4 11.5--- 4.7 4.0---- 0.0------------
1999-08-07 14.6 19.4 11.0--- 6.0 2.7---- 7.6------------
1999-08-06 12.9 17.4 10.0--- 5.3 4.3---- 1.0------------
1999-08-05 10.8 17.3 5.6--- 4.3 1.3---- 1.7------------
1999-08-04 9.0 13.8 5.5--- 6.0 0.0---- 1.8------------
1999-08-03 7.0 9.7 4.6--- 7.0 1.3---- 0.0------------
1999-08-02 6.8 8.3 5.5--- 7.7 2.0---- 0.9------------
1999-08-01 8.7 11.8 7.0--- 6.7 2.7---- 2.0------------
1999-07-31 8.4 11.8 6.5--- 7.3 3.0---- 6.4------------
1999-07-30 7.5 9.7 5.2--- 7.3 4.3---- 2.9------------
1999-07-29 7.5 10.2 6.0--- 7.3 3.7---- 0.0------------
1999-07-28 9.9 11.3 9.0--- 7.3 3.0---- 5.6------------
1999-07-27 11.3 13.5 8.8--- 8.0 3.0---- 21.7------------
1999-07-26 14.2 19.4 10.0--- 6.3 0.0---- 75.3------------
1999-07-25 11.4 17.4 5.5--- 5.7 1.0---- 0.0------------
1999-07-24 6.2 7.8 4.0--- 8.0 1.7---- 0.0------------
1999-07-23 6.7 8.9 5.0--- 8.0 1.3---- 23.1------------
1999-07-22 11.7 15.4 8.9--- 6.7 5.3---- 22.6------------
1999-07-21 14.9 18.4 11.0--- 4.7 6.3---- 0.0------------
1999-07-20 14.0 19.4 8.5--- 3.7 2.0---- 0.0------------
1999-07-19 12.1 17.4 7.0--- 4.0 0.7---- 0.0------------
1999-07-18 10.5 15.4 5.6--- 2.7 1.3---- 0.0------------
1999-07-17 9.1 13.3 5.5--- 6.0 1.7---- 0.0------------
1999-07-16 7.9 11.8 5.2--- 6.3 2.0---- 0.0------------
1999-07-15 8.5 12.3 6.5--- 8.0 2.3---- 3.8------------
1999-07-14 12.2 16.1 10.0--- 6.7 3.0---- 20.8------------
1999-07-13 11.8 15.4 9.8--- 7.3 2.0---- 16.5------------
1999-07-12 14.3 16.7 11.5--- 6.0 1.3---- 10.5------------
1999-07-11 12.6 14.3 11.0--- 8.0 1.7---- 0.3------------
1999-07-10 12.2 14.0 11.0--- 8.0 1.3---- 6.8------------
1999-07-09 12.1 14.8 9.8--- 8.0 0.0---- 6.5------------
1999-07-08 12.6 16.3 10.0--- 8.0 0.3---- 12.6------------
1999-07-07 14.8 18.9 11.6--- 7.0 3.3---- 31.1------------
1999-07-06 16.6 19.5 14.1--- 3.3 6.7---- 0.0------------
1999-07-05 16.9 22.5 11.5--- 1.3 4.3---- 0.0------------
1999-07-04 15.8 22.0 10.0--- 0.7 1.7---- 0.0------------
1999-07-03 11.8 16.5 7.0--- 5.3 1.0---- 0.0------------
1999-07-02 10.5 13.3 7.5--- 6.3 0.0---- 8.8------------
1999-07-01 12.0 17.4 8.5--- 6.0 2.0---- 21.6------------
1999-06-30 13.0 16.4 9.4--- 5.7 0.0---- 18.4------------
1999-06-29 11.7 16.9 8.5--- 6.7 1.0---- 0.0------------
1999-06-28 11.9 14.7 9.0--- 6.3 2.0---- 19.2------------
1999-06-27 13.3 19.9 7.4--- 2.0 2.0---- 0.0------------
1999-06-26 10.1 17.1 4.0--- 1.7 3.7---- 0.0------------
1999-06-25 4.9 8.4 0.2--- 5.3 1.3---- 0.0------------
1999-06-24 1.4 2.5 0.5--- 8.0 1.3---- 1.3------------
1999-06-23 1.3 2.9 0.0--- 8.0 2.0---- 21.7------------
1999-06-22 3.6 8.3 0.6--- 8.0 4.0---- 27.2------------
1999-06-21 10.4 15.2 8.3--- 6.0 1.7---- 18.7------------
1999-06-20 11.5 14.3 8.0--- 7.0 2.3---- 4.8------------
1999-06-19 10.3 13.8 7.0--- 8.0 0.7---- 2.5------------
1999-06-18 10.3 13.3 8.0--- 8.0 0.3---- 14.3------------
1999-06-17 9.9 13.3 7.5--- 8.0 0.0---- 28.0------------
1999-06-16 10.6 13.6 8.5--- 7.0 0.3---- 10.4------------
244.4 ms

 

Źródłem pochodzenia danych jest Instytut Meteorologii i Gospodarki Wodnej – Państwowy Instytut Badawczy. Dane Instytutu Meteorologii i Gospodarki Wodnej – Państwowego Instytutu Badawczego zostały przetworzone.

Dane źródłowe można odnaleźć na stronie https://dane.imgw.pl